createdAt,value
2023-04-28T00:00:40.221Z,205.34
2023-04-28T00:01:40.491Z,209.69
2023-04-28T00:02:40.449Z,208.58
2023-04-28T00:03:40.544Z,204.75
2023-04-28T00:04:40.593Z,204.97
2023-04-28T00:05:40.471Z,204.83
2023-04-28T00:06:40.432Z,205.57
2023-04-28T00:07:40.527Z,204.19
2023-04-28T00:08:40.556Z,202.88
2023-04-28T00:09:40.553Z,204.68
2023-04-28T00:10:40.612Z,201.90
2023-04-28T00:11:40.667Z,201.80
2023-04-28T00:12:41.041Z,201.54
2023-04-28T00:13:40.704Z,202.47
2023-04-28T00:14:40.786Z,204.25
2023-04-28T00:15:40.796Z,206.01
2023-04-28T00:16:41.042Z,206.53
2023-04-28T00:17:41.000Z,207.95
2023-04-28T00:18:40.979Z,210.35
2023-04-28T00:19:40.978Z,212.08
2023-04-28T00:20:41.002Z,210.88
2023-04-28T00:21:41.001Z,213.07
2023-04-28T00:22:41.049Z,213.63
2023-04-28T00:23:41.098Z,218.20
2023-04-28T00:24:41.099Z,220.58
2023-04-28T00:25:41.172Z,223.98
2023-04-28T00:26:41.172Z,225.06
2023-04-28T00:27:41.246Z,224.67
2023-04-28T00:28:41.255Z,226.75
2023-04-28T00:29:41.306Z,226.69
2023-04-28T00:30:41.374Z,227.71
2023-04-28T00:31:41.425Z,227.82
2023-04-28T00:32:41.449Z,228.74
2023-04-28T00:33:41.500Z,231.25
2023-04-28T00:34:41.642Z,232.79
2023-04-28T00:35:41.545Z,232.97
2023-04-28T00:36:41.551Z,234.18
2023-04-28T00:37:41.618Z,233.18
2023-04-28T00:38:41.621Z,235.21
2023-04-28T00:39:41.668Z,236.18
2023-04-28T00:40:41.714Z,239.79
2023-04-28T00:41:41.744Z,240.34
2023-04-28T00:42:41.823Z,238.80
2023-04-28T00:43:41.861Z,240.82
2023-04-28T00:44:41.926Z,242.13
2023-04-28T00:45:41.942Z,242.68
2023-04-28T00:46:41.992Z,241.47
2023-04-28T00:47:42.020Z,246.94
2023-04-28T00:48:42.072Z,247.38
2023-04-28T00:49:42.109Z,249.05
2023-04-28T00:50:42.134Z,249.17
2023-04-28T00:51:42.180Z,249.73
2023-04-28T00:52:42.236Z,248.64
2023-04-28T00:53:42.549Z,245.22
2023-04-28T00:54:42.297Z,247.28
2023-04-28T00:55:42.362Z,247.24
2023-04-28T00:56:42.365Z,246.59
2023-04-28T00:57:42.418Z,247.83
2023-04-28T00:58:42.413Z,247.24
2023-04-28T00:59:42.491Z,245.94
2023-04-28T01:00:42.551Z,244.19
2023-04-28T01:01:42.672Z,235.48
2023-04-28T01:02:42.790Z,235.24
2023-04-28T01:03:42.790Z,230.99
2023-04-28T01:04:42.781Z,230.12
2023-04-28T01:05:42.772Z,228.93
2023-04-28T01:06:42.697Z,233.57
2023-04-28T01:07:42.770Z,236.83
2023-04-28T01:08:42.808Z,236.77
2023-04-28T01:09:42.814Z,238.26
2023-04-28T01:10:42.899Z,236.67
2023-04-28T01:11:42.867Z,237.37
2023-04-28T01:12:42.920Z,234.25
2023-04-28T01:13:42.924Z,233.07
2023-04-28T01:14:42.933Z,229.99
2023-04-28T01:15:43.022Z,229.06
2023-04-28T01:16:43.089Z,229.14
2023-04-28T01:17:43.028Z,231.62
2023-04-28T01:18:43.164Z,231.57
2023-04-28T01:19:43.160Z,231.58
2023-04-28T01:20:43.245Z,232.02
2023-04-28T01:21:43.184Z,231.93
2023-04-28T01:22:43.208Z,234.11
2023-04-28T01:23:43.307Z,236.35
2023-04-28T01:24:43.274Z,235.30
2023-04-28T01:25:43.332Z,239.54
2023-04-28T01:26:43.387Z,238.92
2023-04-28T01:27:43.335Z,235.10
2023-04-28T01:28:43.463Z,231.00
2023-04-28T01:29:43.433Z,231.38
2023-04-28T01:30:43.454Z,231.77
2023-04-28T01:31:43.536Z,229.66
2023-04-28T01:32:43.549Z,230.17
2023-04-28T01:33:43.535Z,232.22
2023-04-28T01:34:43.534Z,236.95
2023-04-28T01:35:43.545Z,239.61
2023-04-28T01:36:43.596Z,241.38
2023-04-28T01:37:43.614Z,240.90
2023-04-28T01:38:43.675Z,244.54
2023-04-28T01:39:43.708Z,245.21
2023-04-28T01:40:43.683Z,243.93
2023-04-28T01:41:43.659Z,244.27
2023-04-28T01:42:43.756Z,243.71
2023-04-28T01:43:43.766Z,243.32
2023-04-28T01:44:43.848Z,242.31
2023-04-28T01:45:43.795Z,243.46
2023-04-28T01:46:44.557Z,242.38
2023-04-28T01:47:43.920Z,245.13
2023-04-28T01:48:43.890Z,249.04
2023-04-28T01:49:43.889Z,249.70
2023-04-28T01:50:43.966Z,250.00
2023-04-28T01:51:43.932Z,249.14
2023-04-28T01:52:43.974Z,249.87
2023-04-28T01:53:44.033Z,246.29
2023-04-28T01:54:44.096Z,247.84
2023-04-28T01:55:44.037Z,248.07
2023-04-28T01:56:44.036Z,243.01
2023-04-28T01:57:44.134Z,243.80
2023-04-28T01:58:44.174Z,238.68
2023-04-28T01:59:44.658Z,236.03
2023-04-28T02:00:44.547Z,237.67
2023-04-28T02:01:44.251Z,238.57
2023-04-28T02:02:44.330Z,238.53
2023-04-28T02:03:44.479Z,240.49
2023-04-28T02:04:44.263Z,242.13
2023-04-28T02:05:44.302Z,246.90
2023-04-28T02:06:44.295Z,247.48
2023-04-28T02:07:44.320Z,247.35
2023-04-28T02:08:44.299Z,249.52
2023-04-28T02:09:44.324Z,246.19
2023-04-28T02:10:44.341Z,247.04
2023-04-28T02:11:44.368Z,247.82
2023-04-28T02:12:44.376Z,247.18
2023-04-28T02:13:44.374Z,250.00
2023-04-28T02:14:44.435Z,249.89
2023-04-28T02:15:44.500Z,250.00
2023-04-28T02:16:44.450Z,250.00
2023-04-28T02:17:44.532Z,248.96
2023-04-28T02:18:44.530Z,246.30
2023-04-28T02:19:44.502Z,248.14
2023-04-28T02:20:44.544Z,246.93
2023-04-28T02:21:44.609Z,247.11
2023-04-28T02:22:44.685Z,247.53
2023-04-28T02:23:44.734Z,249.46
2023-04-28T02:24:44.639Z,247.41
2023-04-28T02:25:44.666Z,249.41
2023-04-28T02:26:44.651Z,247.36
2023-04-28T02:27:44.655Z,250.00
2023-04-28T02:28:44.674Z,248.93
2023-04-28T02:29:44.749Z,246.94
2023-04-28T02:30:44.742Z,247.05
2023-04-28T02:31:44.826Z,246.51
2023-04-28T02:32:44.797Z,243.59
2023-04-28T02:33:44.785Z,247.33
2023-04-28T02:34:44.807Z,248.18
2023-04-28T02:35:44.819Z,248.70
2023-04-28T02:36:44.817Z,247.45
2023-04-28T02:37:44.934Z,248.44
2023-04-28T02:38:44.854Z,248.15
2023-04-28T02:39:44.822Z,240.68
2023-04-28T02:40:44.872Z,242.43
2023-04-28T02:41:44.862Z,241.40
2023-04-28T02:42:44.934Z,241.69
2023-04-28T02:43:44.974Z,242.44
2023-04-28T02:44:45.010Z,243.44
2023-04-28T02:45:45.005Z,245.26
2023-04-28T02:46:45.054Z,244.56
2023-04-28T02:47:45.097Z,243.93
2023-04-28T02:48:45.092Z,245.29
2023-04-28T02:49:45.092Z,245.87
2023-04-28T02:50:45.095Z,247.61
2023-04-28T02:51:45.127Z,247.33
2023-04-28T02:52:46.488Z,247.60
2023-04-28T02:53:45.283Z,247.79
2023-04-28T02:54:45.325Z,244.82
2023-04-28T02:55:46.065Z,246.99
2023-04-28T02:56:45.287Z,247.93
2023-04-28T02:57:45.391Z,248.80
2023-04-28T02:58:45.388Z,248.60
2023-04-28T02:59:45.394Z,248.35
2023-04-28T03:00:45.408Z,244.98
2023-04-28T03:01:45.491Z,244.57
2023-04-28T03:02:45.517Z,243.44
2023-04-28T03:03:45.624Z,245.05
2023-04-28T03:04:45.520Z,242.78
2023-04-28T03:05:45.514Z,243.08
2023-04-28T03:06:45.543Z,242.74
2023-04-28T03:07:45.543Z,242.82
2023-04-28T03:08:45.649Z,239.32
2023-04-28T03:09:45.576Z,240.32
2023-04-28T03:10:45.625Z,239.54
2023-04-28T03:11:45.598Z,240.30
2023-04-28T03:12:45.618Z,239.32
2023-04-28T03:13:45.690Z,239.63
2023-04-28T03:14:45.700Z,240.92
2023-04-28T03:15:45.717Z,240.36
2023-04-28T03:16:45.805Z,240.75
2023-04-28T03:17:45.856Z,242.98
2023-04-28T03:18:45.751Z,242.17
2023-04-28T03:19:45.767Z,239.36
2023-04-28T03:20:45.832Z,238.55
2023-04-28T03:21:45.849Z,239.38
2023-04-28T03:22:46.655Z,236.91
2023-04-28T03:23:45.875Z,237.26
2023-04-28T03:24:45.887Z,237.37
2023-04-28T03:25:45.900Z,236.61
2023-04-28T03:26:45.878Z,239.29
2023-04-28T03:27:45.910Z,240.08
2023-04-28T03:28:45.975Z,240.77
2023-04-28T03:29:46.009Z,241.94
2023-04-28T03:30:46.106Z,241.84
2023-04-28T03:31:46.027Z,243.03
2023-04-28T03:32:46.095Z,247.10
2023-04-28T03:33:46.032Z,247.40
2023-04-28T03:34:46.044Z,243.07
2023-04-28T03:35:46.031Z,246.18
2023-04-28T03:36:46.059Z,243.04
2023-04-28T03:37:46.064Z,242.38
2023-04-28T03:38:46.067Z,242.03
2023-04-28T03:39:46.100Z,242.47
2023-04-28T03:40:46.190Z,242.61
2023-04-28T03:41:46.206Z,244.06
2023-04-28T03:42:46.201Z,244.07
2023-04-28T03:43:46.230Z,247.39
2023-04-28T03:44:46.189Z,248.30
2023-04-28T03:45:46.273Z,247.47
2023-04-28T03:46:46.242Z,248.59
2023-04-28T03:47:46.314Z,247.05
2023-04-28T03:48:46.289Z,245.93
2023-04-28T03:49:46.341Z,246.30
2023-04-28T03:50:46.359Z,245.25
2023-04-28T03:51:46.361Z,246.26
2023-04-28T03:52:46.417Z,246.69
2023-04-28T03:53:46.394Z,250.00
2023-04-28T03:54:46.544Z,246.09
2023-04-28T03:55:46.488Z,249.60
2023-04-28T03:56:46.492Z,247.21
2023-04-28T03:57:46.584Z,248.74
2023-04-28T03:58:46.540Z,247.69
2023-04-28T03:59:46.603Z,249.30
2023-04-28T04:00:46.552Z,248.38
2023-04-28T04:01:46.654Z,248.84
2023-04-28T04:02:46.721Z,248.20
2023-04-28T04:03:46.874Z,248.02
2023-04-28T04:04:46.805Z,246.89
2023-04-28T04:05:46.771Z,247.57
2023-04-28T04:06:46.761Z,247.14
2023-04-28T04:07:46.716Z,248.75
2023-04-28T04:08:46.774Z,245.35
2023-04-28T04:09:46.812Z,245.63
2023-04-28T04:10:46.887Z,246.07
2023-04-28T04:11:47.006Z,245.87
2023-04-28T04:12:46.995Z,245.23
2023-04-28T04:13:46.940Z,244.21
2023-04-28T04:14:46.972Z,243.97
2023-04-28T04:15:46.995Z,241.36
2023-04-28T04:16:47.030Z,243.56
2023-04-28T04:17:47.116Z,242.29
2023-04-28T04:18:47.064Z,241.91
2023-04-28T04:19:47.088Z,245.91
2023-04-28T04:20:47.170Z,244.58
2023-04-28T04:21:47.171Z,243.76
2023-04-28T04:22:47.615Z,245.89
2023-04-28T04:23:47.204Z,245.68
2023-04-28T04:24:47.293Z,243.54
2023-04-28T04:25:47.307Z,243.91
2023-04-28T04:26:47.308Z,241.71
2023-04-28T04:27:47.416Z,244.49
2023-04-28T04:28:47.356Z,245.25
2023-04-28T04:29:47.361Z,245.09
2023-04-28T04:30:47.434Z,244.60
2023-04-28T04:31:47.544Z,246.19
2023-04-28T04:32:47.423Z,244.91
2023-04-28T04:33:48.092Z,245.24
2023-04-28T04:34:47.507Z,244.52
2023-04-28T04:35:47.512Z,244.25
2023-04-28T04:36:47.595Z,243.49
2023-04-28T04:37:47.613Z,243.63
2023-04-28T04:38:47.564Z,246.82
2023-04-28T04:39:47.709Z,243.83
2023-04-28T04:40:47.718Z,244.77
2023-04-28T04:41:47.685Z,247.17
2023-04-28T04:42:48.123Z,247.03
2023-04-28T04:43:47.746Z,247.18
2023-04-28T04:44:47.716Z,247.23
2023-04-28T04:45:47.868Z,245.61
2023-04-28T04:46:47.970Z,246.26
2023-04-28T04:47:47.930Z,246.63
2023-04-28T04:48:47.892Z,246.82
2023-04-28T04:49:47.906Z,246.42
2023-04-28T04:50:47.949Z,245.33
2023-04-28T04:51:48.002Z,243.98
2023-04-28T04:52:48.011Z,244.55
2023-04-28T04:53:48.019Z,241.08
2023-04-28T04:54:48.086Z,241.01
2023-04-28T04:55:48.147Z,243.96
2023-04-28T04:56:48.133Z,242.89
2023-04-28T04:57:48.222Z,240.26
2023-04-28T04:58:48.249Z,241.57
2023-04-28T04:59:48.222Z,242.05
2023-04-28T05:00:48.327Z,239.97
2023-04-28T05:01:48.396Z,242.95
2023-04-28T05:02:48.398Z,242.15
2023-04-28T05:03:48.435Z,239.24
2023-04-28T05:04:48.321Z,238.44
2023-04-28T05:05:48.247Z,240.20
2023-04-28T05:06:48.206Z,241.23
2023-04-28T05:07:48.213Z,239.60
2023-04-28T05:08:48.218Z,241.35
2023-04-28T05:09:48.218Z,242.77
2023-04-28T05:10:48.745Z,241.66
2023-04-28T05:11:48.239Z,238.14
2023-04-28T05:12:49.091Z,239.61
2023-04-28T05:13:48.158Z,240.90
2023-04-28T05:14:48.212Z,239.49
2023-04-28T05:16:48.800Z,25.00
2023-04-28T05:17:48.711Z,25.00
2023-04-28T05:18:48.653Z,25.00
2023-04-28T05:19:48.666Z,25.00
2023-04-28T05:20:48.666Z,25.00
2023-04-28T05:21:48.669Z,26.54
2023-04-28T05:22:48.619Z,31.83
2023-04-28T05:23:48.633Z,32.55
2023-04-28T05:24:48.598Z,36.18
2023-04-28T05:25:48.648Z,39.49
2023-04-28T05:26:48.646Z,45.07
2023-04-28T05:27:48.613Z,43.94
2023-04-28T05:28:48.631Z,47.82
2023-04-28T05:29:48.662Z,49.22
2023-04-28T05:30:48.671Z,55.17
2023-04-28T05:31:48.678Z,55.19
2023-04-28T05:32:48.733Z,56.25
2023-04-28T05:33:48.658Z,68.71
2023-04-28T05:34:48.552Z,68.70
2023-04-28T05:35:48.572Z,75.30
2023-04-28T05:36:48.956Z,78.73
2023-04-28T05:37:48.572Z,82.05
2023-04-28T05:38:48.546Z,80.92
2023-04-28T05:39:48.587Z,81.04
2023-04-28T05:40:48.550Z,82.06
2023-04-28T05:41:48.527Z,86.19
2023-04-28T05:42:48.502Z,83.69
2023-04-28T05:43:48.511Z,82.52
2023-04-28T05:44:48.572Z,85.97
2023-04-28T05:45:48.507Z,83.98
2023-04-28T05:46:48.577Z,86.30
2023-04-28T05:47:48.579Z,80.68
2023-04-28T05:48:48.487Z,80.47
2023-04-28T05:49:48.460Z,79.79
2023-04-28T05:50:48.512Z,81.44
2023-04-28T05:51:48.469Z,80.43
2023-04-28T05:52:48.411Z,79.83
2023-04-28T05:53:48.490Z,76.75
2023-04-28T05:54:48.494Z,78.40
2023-04-28T05:55:49.010Z,76.81
2023-04-28T05:56:48.542Z,79.25
2023-04-28T05:57:53.211Z,76.55
2023-04-28T05:58:48.661Z,76.77
2023-04-28T05:59:48.620Z,76.66
2023-04-28T06:00:48.878Z,76.79
2023-04-28T06:01:48.708Z,76.92
2023-04-28T06:02:48.678Z,77.80
2023-04-28T06:03:48.931Z,75.45
2023-04-28T06:04:48.789Z,76.82
2023-04-28T06:05:48.661Z,71.90
2023-04-28T06:06:48.576Z,76.68
2023-04-28T06:07:50.085Z,74.61
2023-04-28T06:08:48.586Z,75.44
2023-04-28T06:09:48.555Z,74.49
2023-04-28T06:10:48.709Z,71.44
2023-04-28T06:11:48.914Z,71.33
2023-04-28T06:12:48.507Z,70.73
2023-04-28T06:13:48.514Z,73.15
2023-04-28T06:14:48.542Z,71.26
2023-04-28T06:15:48.514Z,73.01
2023-04-28T06:16:48.477Z,70.52
2023-04-28T06:17:48.537Z,70.77
2023-04-28T06:18:49.725Z,59.24
2023-04-28T06:19:48.562Z,43.76
2023-04-28T06:20:49.438Z,42.12
2023-04-28T06:21:48.574Z,32.82
2023-04-28T06:22:48.628Z,25.32
2023-04-28T06:23:48.675Z,25.15
2023-04-28T06:24:48.699Z,25.42
2023-04-28T06:25:48.708Z,27.25
2023-04-28T06:26:48.912Z,32.10
2023-04-28T06:27:48.921Z,28.37
2023-04-28T06:28:48.765Z,25.00
2023-04-28T06:29:48.806Z,30.65
2023-04-28T06:30:48.802Z,33.61
2023-04-28T06:31:48.953Z,29.59
2023-04-28T06:32:48.961Z,25.01
2023-04-28T06:33:48.869Z,25.77
2023-04-28T06:34:48.860Z,26.70
2023-04-28T06:35:48.913Z,25.50
2023-04-28T06:36:49.451Z,25.00
2023-04-28T06:37:48.949Z,24.23
2023-04-28T06:38:49.011Z,25.00
2023-04-28T06:39:49.075Z,27.87
2023-04-28T06:40:49.128Z,24.22
2023-04-28T06:41:49.417Z,33.81
2023-04-28T06:42:49.099Z,26.33
2023-04-28T06:43:49.178Z,24.01
2023-04-28T06:44:49.291Z,31.33
2023-04-28T06:45:49.613Z,29.02
2023-04-28T06:46:49.264Z,29.32
2023-04-28T06:47:49.452Z,36.46
2023-04-28T06:48:49.546Z,36.68
2023-04-28T06:49:49.329Z,26.55
2023-04-28T06:50:49.330Z,29.57
2023-04-28T06:51:49.449Z,25.00
2023-04-28T06:52:49.450Z,25.00
2023-04-28T06:53:49.470Z,26.78
2023-04-28T06:54:49.573Z,40.46
2023-04-28T06:55:49.581Z,51.37
2023-04-28T06:56:49.589Z,53.53
2023-04-28T06:57:49.695Z,48.58
2023-04-28T06:58:49.642Z,51.44
2023-04-28T06:59:50.028Z,62.24
2023-04-28T07:00:49.760Z,71.82
2023-04-28T07:01:49.723Z,83.11
2023-04-28T07:02:49.942Z,89.60
2023-04-28T07:03:49.847Z,96.40
2023-04-28T07:04:49.786Z,105.85
2023-04-28T07:05:49.850Z,114.09
2023-04-28T07:06:49.969Z,119.36
2023-04-28T07:07:49.970Z,120.33
2023-04-28T07:08:49.884Z,126.50
2023-04-28T07:09:49.908Z,129.38
2023-04-28T07:10:50.001Z,135.11
2023-04-28T07:11:50.022Z,138.68
2023-04-28T07:12:50.038Z,139.69
2023-04-28T07:13:50.031Z,141.55
2023-04-28T07:14:50.033Z,147.00
2023-04-28T07:15:50.069Z,149.88
2023-04-28T07:16:50.109Z,154.69
2023-04-28T07:17:50.163Z,159.39
2023-04-28T07:18:50.155Z,156.64
2023-04-28T07:19:50.152Z,159.30
2023-04-28T07:20:50.150Z,164.57
2023-04-28T07:21:50.204Z,168.45
2023-04-28T07:22:50.228Z,166.91
2023-04-28T07:23:50.427Z,170.89
2023-04-28T07:24:50.230Z,169.73
2023-04-28T07:25:50.227Z,174.77
2023-04-28T07:26:50.256Z,173.24
2023-04-28T07:27:50.323Z,174.81
2023-04-28T07:28:50.325Z,173.91
2023-04-28T07:29:50.335Z,177.34
2023-04-28T07:30:50.378Z,177.14
2023-04-28T07:31:50.429Z,182.15
2023-04-28T07:32:50.483Z,181.55
2023-04-28T07:33:50.386Z,184.14
2023-04-28T07:34:50.448Z,185.42
2023-04-28T07:35:50.422Z,187.06
2023-04-28T07:36:50.517Z,189.22
2023-04-28T07:37:50.500Z,190.72
2023-04-28T07:38:50.494Z,194.82
2023-04-28T07:39:50.605Z,191.56
2023-04-28T07:41:50.653Z,199.49
2023-04-28T07:42:50.620Z,199.15
2023-04-28T07:43:50.573Z,202.12
2023-04-28T07:44:50.745Z,202.85
2023-04-28T07:45:50.679Z,202.36
2023-04-28T07:46:52.150Z,205.55
2023-04-28T07:47:50.765Z,207.13
2023-04-28T07:48:50.759Z,205.85
2023-04-28T07:49:50.808Z,210.09
2023-04-28T07:50:50.818Z,209.89
2023-04-28T07:51:50.905Z,215.21
2023-04-28T07:52:50.877Z,215.06
2023-04-28T07:53:50.828Z,214.12
2023-04-28T07:54:50.937Z,216.99
2023-04-28T07:55:50.960Z,214.92
2023-04-28T07:56:50.949Z,220.85
2023-04-28T07:57:51.023Z,218.72
2023-04-28T07:58:51.037Z,219.35
2023-04-28T07:59:51.029Z,221.91
2023-04-28T08:00:51.079Z,217.20
2023-04-28T08:01:51.098Z,215.79
2023-04-28T08:02:51.368Z,198.63
2023-04-28T08:03:51.368Z,190.13
2023-04-28T08:04:51.467Z,145.79
2023-04-28T08:05:51.235Z,116.07
2023-04-28T08:06:51.189Z,113.62
2023-04-28T08:07:51.234Z,130.72
2023-04-28T08:08:51.418Z,134.47
2023-04-28T08:09:53.220Z,119.81
2023-04-28T08:10:51.367Z,127.53
2023-04-28T08:11:51.333Z,115.42
2023-04-28T08:12:51.329Z,119.63
2023-04-28T08:13:51.435Z,103.66
2023-04-28T08:14:51.399Z,111.07
2023-04-28T08:15:51.588Z,103.09
2023-04-28T08:16:51.457Z,47.02
2023-04-28T08:17:51.475Z,21.07
2023-04-28T08:18:51.491Z,6.30
2023-04-28T08:19:51.551Z,22.44
2023-04-28T08:20:51.610Z,23.57
2023-04-28T08:21:51.942Z,2.15
2023-04-28T08:22:51.673Z,0.00
2023-04-28T08:23:52.162Z,23.43
2023-04-28T08:24:51.661Z,0.36
2023-04-28T08:25:51.738Z,17.46
2023-04-28T08:26:51.745Z,32.79
2023-04-28T08:27:52.019Z,78.51
2023-04-28T08:28:51.682Z,97.86
2023-04-28T08:29:51.815Z,123.21
2023-04-28T08:30:51.867Z,156.66
2023-04-28T08:31:51.823Z,178.88
2023-04-28T08:32:51.909Z,186.04
2023-04-28T08:33:52.954Z,200.18
2023-04-28T08:34:51.944Z,222.33
2023-04-28T08:35:52.094Z,234.58
2023-04-28T08:36:52.528Z,243.74
2023-04-28T08:37:51.949Z,250.00
2023-04-28T08:38:52.005Z,250.00
2023-04-28T08:39:53.018Z,249.59
2023-04-28T08:40:52.065Z,246.90
2023-04-28T08:41:52.123Z,249.75
2023-04-28T08:42:52.148Z,247.96
2023-04-28T08:43:52.163Z,250.00
2023-04-28T08:44:52.171Z,249.90
2023-04-28T08:45:52.229Z,249.91
2023-04-28T08:46:52.264Z,250.00
2023-04-28T08:47:52.446Z,249.69
2023-04-28T08:48:52.211Z,250.38
2023-04-28T08:49:52.199Z,248.00
2023-04-28T08:50:53.952Z,249.35
2023-04-28T08:51:52.318Z,248.87
2023-04-28T08:52:53.974Z,249.47
2023-04-28T08:54:11.794Z,242.58
2023-04-28T08:54:53.991Z,242.70
2023-04-28T08:55:52.996Z,243.12
2023-04-28T08:56:52.546Z,243.80
2023-04-28T08:57:52.520Z,243.33
2023-04-28T08:58:52.262Z,247.04
2023-04-28T08:59:52.304Z,250.00
2023-04-28T09:00:52.272Z,249.03
2023-04-28T09:01:52.345Z,249.62
2023-04-28T09:02:52.391Z,239.53
2023-04-28T09:03:52.365Z,243.85
2023-04-28T09:04:52.486Z,247.94
2023-04-28T09:05:52.367Z,243.28
2023-04-28T09:06:52.436Z,240.71
2023-04-28T09:07:52.440Z,236.79
2023-04-28T09:08:52.468Z,243.17
2023-04-28T09:09:52.443Z,246.12
2023-04-28T09:10:52.549Z,240.32
2023-04-28T09:11:52.566Z,237.76
2023-04-28T09:12:52.670Z,242.19
2023-04-28T09:13:52.776Z,246.55
2023-04-28T09:14:52.677Z,250.00
2023-04-28T09:15:52.688Z,243.40
2023-04-28T09:16:52.809Z,249.00
2023-04-28T09:17:52.868Z,243.97
2023-04-28T09:18:52.814Z,238.86
2023-04-28T09:19:52.872Z,233.74
2023-04-28T09:20:52.923Z,230.16
2023-04-28T09:21:52.989Z,229.11
2023-04-28T09:22:53.004Z,229.09
2023-04-28T09:23:53.018Z,228.71
2023-04-28T09:24:53.103Z,225.58
2023-04-28T09:25:54.117Z,221.42
2023-04-28T09:26:55.628Z,223.29
2023-04-28T09:27:53.281Z,224.65
2023-04-28T09:28:53.090Z,225.49
2023-04-28T09:29:53.111Z,225.41
2023-04-28T09:30:55.408Z,226.13
2023-04-28T09:31:53.461Z,226.21
2023-04-28T09:32:53.531Z,226.61
2023-04-28T09:33:53.142Z,227.90
2023-04-28T09:34:53.090Z,230.70
2023-04-28T09:35:53.198Z,233.14
2023-04-28T09:36:53.282Z,233.03
2023-04-28T09:37:53.315Z,236.89
2023-04-28T09:38:54.602Z,239.32
2023-04-28T09:39:53.305Z,238.61
2023-04-28T09:40:53.337Z,243.00
2023-04-28T09:41:53.378Z,242.46
2023-04-28T09:42:53.428Z,240.06
2023-04-28T09:43:53.496Z,241.33
2023-04-28T09:44:53.580Z,240.15
2023-04-28T09:45:53.680Z,240.81
2023-04-28T09:46:53.653Z,244.57
2023-04-28T09:47:53.707Z,244.62
2023-04-28T09:48:53.692Z,246.87
2023-04-28T09:49:53.745Z,247.45
2023-04-28T09:50:53.978Z,247.36
2023-04-28T09:51:53.937Z,246.34
2023-04-28T09:52:53.868Z,249.13
2023-04-28T09:53:53.873Z,248.43
2023-04-28T09:54:54.056Z,247.29
2023-04-28T09:55:54.030Z,247.31
2023-04-28T09:56:54.101Z,247.42
2023-04-28T09:57:54.518Z,246.67
2023-04-28T09:58:54.158Z,248.16
2023-04-28T09:59:54.139Z,247.02
2023-04-28T10:00:54.276Z,247.94
2023-04-28T10:01:54.297Z,247.49
2023-04-28T10:02:54.417Z,247.65
2023-04-28T10:03:54.403Z,244.36
2023-04-28T10:04:54.547Z,244.79
2023-04-28T10:05:54.433Z,245.74
2023-04-28T10:06:54.435Z,243.93
2023-04-28T10:07:54.493Z,242.49
2023-04-28T10:08:54.483Z,243.63
2023-04-28T10:09:54.562Z,239.19
2023-04-28T10:10:54.790Z,238.05
2023-04-28T10:11:54.745Z,237.72
2023-04-28T10:12:54.786Z,237.27
2023-04-28T10:13:54.736Z,237.60
2023-04-28T10:14:54.850Z,236.20
2023-04-28T10:15:55.078Z,236.63
2023-04-28T10:16:54.861Z,237.18
2023-04-28T10:17:54.944Z,235.76
2023-04-28T10:18:54.979Z,235.52
2023-04-28T10:19:54.984Z,232.13
2023-04-28T10:20:55.045Z,233.34
2023-04-28T10:21:55.060Z,233.55
2023-04-28T10:22:55.094Z,229.44
2023-04-28T10:23:55.136Z,227.01
2023-04-28T10:24:55.223Z,226.62
2023-04-28T10:25:55.213Z,225.13
2023-04-28T10:26:55.359Z,222.30
2023-04-28T10:27:55.269Z,220.79
2023-04-28T10:28:55.368Z,220.23
2023-04-28T10:29:55.457Z,220.29
2023-04-28T10:30:55.546Z,218.98
2023-04-28T10:31:55.470Z,213.50
2023-04-28T10:32:55.608Z,215.29
2023-04-28T10:33:55.522Z,214.32
2023-04-28T10:34:55.592Z,216.08
2023-04-28T10:35:55.700Z,215.18
2023-04-28T10:36:55.639Z,216.20
2023-04-28T10:37:55.885Z,212.47
2023-04-28T10:38:55.747Z,208.09
2023-04-28T10:39:56.100Z,206.63
2023-04-28T10:40:56.015Z,206.97
2023-04-28T10:41:55.812Z,212.53
2023-04-28T10:42:55.850Z,212.72
2023-04-28T10:43:55.922Z,215.82
2023-04-28T10:44:55.926Z,216.98
2023-04-28T10:45:57.545Z,221.04
2023-04-28T10:46:56.083Z,221.61
2023-04-28T10:47:56.173Z,220.50
2023-04-28T10:48:56.059Z,221.43
2023-04-28T10:49:56.126Z,224.88
2023-04-28T10:50:56.171Z,225.55
2023-04-28T10:51:56.186Z,220.56
2023-04-28T10:52:56.177Z,216.57
2023-04-28T10:53:56.256Z,217.01
2023-04-28T10:54:56.268Z,213.59
2023-04-28T10:55:56.320Z,214.97
2023-04-28T10:56:56.372Z,218.43
2023-04-28T10:57:56.408Z,216.72
2023-04-28T10:58:56.400Z,217.83
2023-04-28T10:59:56.443Z,218.24
2023-04-28T11:00:56.531Z,215.43
2023-04-28T11:01:56.512Z,215.02
2023-04-28T11:02:56.600Z,214.55
2023-04-28T11:03:56.739Z,212.86
2023-04-28T11:04:56.762Z,212.87
2023-04-28T11:05:56.655Z,209.70
2023-04-28T11:06:56.645Z,210.51
2023-04-28T11:07:58.794Z,208.25
2023-04-28T11:08:56.705Z,210.76
2023-04-28T11:09:56.721Z,213.43
2023-04-28T11:10:56.669Z,209.10
2023-04-28T11:11:56.728Z,209.23
2023-04-28T11:12:56.794Z,212.73
2023-04-28T11:13:56.671Z,214.24
2023-04-28T11:14:56.705Z,210.41
2023-04-28T11:15:56.662Z,212.48
2023-04-28T11:16:56.648Z,211.53
2023-04-28T11:17:56.608Z,211.41
2023-04-28T11:18:56.591Z,214.09
2023-04-28T11:19:56.571Z,217.05
2023-04-28T11:20:57.181Z,219.56
2023-04-28T11:21:56.615Z,221.62
2023-04-28T11:22:56.581Z,226.01
2023-04-28T11:23:56.564Z,238.84
2023-04-28T11:24:56.532Z,238.06
2023-04-28T11:25:56.588Z,239.74
2023-04-28T11:26:57.030Z,238.87
2023-04-28T11:27:56.620Z,242.76
2023-04-28T11:28:56.635Z,245.65
2023-04-28T11:29:56.568Z,246.48
2023-04-28T11:30:56.510Z,249.45
2023-04-28T11:31:56.591Z,249.31
2023-04-28T11:32:56.567Z,249.03
2023-04-28T11:33:56.502Z,247.23
2023-04-28T11:34:56.467Z,244.56
2023-04-28T11:35:56.465Z,249.68
2023-04-28T11:36:56.460Z,250.00
2023-04-28T11:37:56.483Z,250.00
2023-04-28T11:38:56.480Z,247.87
2023-04-28T11:39:56.428Z,245.03
2023-04-28T11:40:56.531Z,241.69
2023-04-28T11:41:56.496Z,241.58
2023-04-28T11:42:58.326Z,239.73
2023-04-28T11:43:56.595Z,242.50
2023-04-28T11:44:56.619Z,243.21
2023-04-28T11:45:56.660Z,245.77
2023-04-28T11:46:56.678Z,247.53
2023-04-28T11:47:56.705Z,248.43
2023-04-28T11:48:56.692Z,247.41
2023-04-28T11:49:56.786Z,245.72
2023-04-28T11:50:56.709Z,246.13
2023-04-28T11:51:56.750Z,245.67
2023-04-28T11:52:56.777Z,245.00
2023-04-28T11:53:56.827Z,241.28
2023-04-28T11:54:56.842Z,238.41
2023-04-28T11:55:56.847Z,240.19
2023-04-28T11:56:56.936Z,238.16
2023-04-28T11:57:56.925Z,234.71
2023-04-28T11:58:56.969Z,234.25
2023-04-28T11:59:57.005Z,236.02
2023-04-28T12:00:56.981Z,235.79
2023-04-28T12:01:57.182Z,234.69
2023-04-28T12:02:57.289Z,235.12
2023-04-28T12:03:57.226Z,233.67
2023-04-28T12:04:57.297Z,231.86
2023-04-28T12:05:57.264Z,231.00
2023-04-28T12:06:57.236Z,231.22
2023-04-28T12:07:57.211Z,231.23
2023-04-28T12:08:57.279Z,230.99
2023-04-28T12:09:57.285Z,228.51
2023-04-28T12:10:57.320Z,226.23
2023-04-28T12:11:57.346Z,226.59
2023-04-28T12:12:57.375Z,226.29
2023-04-28T12:13:57.382Z,226.35
2023-04-28T12:14:57.466Z,228.76
2023-04-28T12:15:57.591Z,226.55
2023-04-28T12:16:57.475Z,226.59
2023-04-28T12:17:57.515Z,227.53
2023-04-28T12:18:57.639Z,226.17
2023-04-28T12:19:57.530Z,226.14
2023-04-28T12:20:57.582Z,226.66
2023-04-28T12:21:57.629Z,224.18
2023-04-28T12:22:57.658Z,224.09
2023-04-28T12:23:57.702Z,226.49
2023-04-28T12:24:57.663Z,227.30
2023-04-28T12:25:57.757Z,227.22
2023-04-28T12:26:57.753Z,227.54
2023-04-28T12:27:57.753Z,226.76
2023-04-28T12:28:57.795Z,227.37
2023-04-28T12:29:57.857Z,228.97
2023-04-28T12:30:57.869Z,229.21
2023-04-28T12:31:57.877Z,230.98
2023-04-28T12:32:57.921Z,229.81
2023-04-28T12:33:57.942Z,230.88
2023-04-28T12:34:57.981Z,232.27